الصفحة الرئيسية
METAR-TAF:

METAR-TAF

مطار :

مطار سير سيووساغور رامغولام الدولي

موريشيوس, موريشيوس

دائرة عرض: 20-26S, خط طول: 057-40E, ارتفاع: 55 متر

مراقبة الطقس الحالي

تاريخ ووقت الإصدار 33 دقيقة قبل الساعة 06:00UTC
ريح 5 عقدة من الجنوب
درجة الحرارة 24°درجة مئوية
الرطوبة 74%
ضغط 1019 hPa
الرؤية 10 كم أو أكثر
غيوم مفككة على ارتفاع 1500 قدم

METAR: FIMP 160600Z 18005KT 9999 BKN015 24/19 Q1019

زمن: 10:33 (06:33 UTC)

توقعات

تاريخ ووقت الإصدار 1ساعة و 28 دقيقة قبل الساعة 05:05UTC
التوقعات صالحة من16 الساعة 06 UTC إلى 17 الساعة 12 UTC
ريح 5 عقدة من الجنوب الشرقي
الرؤية 10 كم أو أكثر
غيوم متفرقة على ارتفاع 1700 قدم
نظرية الاحتمالات 30% :
مؤقت
من 16 الساعة 15 UTC إلى 17 الساعة 03 UTC
غيوم قليلة على ارتفاع 1000 قدم
غيوم متفرقة على ارتفاع 1500 قدم
زخات من الأمطار الخفيفة
أصبح
من 16 الساعة 18 UTC إلى 16 الساعة 20 UTC
ريح 3 عقدة من الشمال/الشمال الغربي
أصبح
من 17 الساعة 04 UTC إلى 17 الساعة 06 UTC
ريح 10 عقدة من الجنوب/الجنوب الشرقي

TAF: FIMP 160505Z 1606/1712 13005KT 9999 SCT017 PROB30 TEMPO 1615/1703 -SHRA FEW010 SCT015 BECMG 1618/1620 33003KT BECMG 1704/1706 15010KT

أرصاد الطقس والتوقعات من أكثر من 4000 مطار (تقارير الطقس للمطار METAR والتنبؤ بالطقس بالمطارTAF).

المحطات المتاحة هي النقط الصفراء والحمراء على الخريطة.

حرك المؤشر فوق النقطة لمعرفة اسم المحطة.

ثم انقر لمعرفة أرصاد وتوقعات الطقس.

لتغيير الخارطة: اضغط على الأزرار الخضراء مع رمز الصليب الأسود للتكبير. على الزر الأخضر مع شرطة للتصغير، أو على الأسهم الخضراء للخرائط المجاورة.


METAR-TAF: